Terminal Aerodrome Forecast
Issued by NWS

Home | Current Version | Previous Version | Text Only | Print | Product List | Glossary On
Versions: 1 2 3 4 5 6 7 8 9 10 11 12 13 14 15 16
000
FTUS46 KSEW 082347
TAFCLM
TAF
KCLM 082347Z 0900/0924 12010KT P6SM SCT035 BKN120 OVC200
     FM090600 VRB03KT 4SM -SN SCT008 OVC030
     FM091200 10004KT P6SM -RA BKN009 OVC050
     FM092000 VRB03KT 5SM -RA BR BKN009 OVC040=

USA.gov is the U.S. government's official web portal to all federal, state and local government web resources and services.